sensor_id;sensor_type;location;lat;lon;timestamp;P1;durP1;ratioP1;P2;durP2;ratioP2
5821;SDS011;2937;48.562;8.022;2023-04-09T00:01:48;13.37;;;11.30;;
5821;SDS011;2937;48.562;8.022;2023-04-09T00:06:40;14.73;;;11.30;;
5821;SDS011;2937;48.562;8.022;2023-04-09T00:11:33;17.00;;;11.20;;
5821;SDS011;2937;48.562;8.022;2023-04-09T00:16:26;17.90;;;11.60;;
5821;SDS011;2937;48.562;8.022;2023-04-09T00:21:20;15.97;;;12.17;;
5821;SDS011;2937;48.562;8.022;2023-04-09T00:26:13;16.13;;;12.57;;
5821;SDS011;2937;48.562;8.022;2023-04-09T00:31:05;16.67;;;12.70;;
5821;SDS011;2937;48.562;8.022;2023-04-09T00:35:58;20.57;;;13.73;;
5821;SDS011;2937;48.562;8.022;2023-04-09T00:40:52;25.33;;;16.90;;
5821;SDS011;2937;48.562;8.022;2023-04-09T00:45:45;21.90;;;15.73;;
5821;SDS011;2937;48.562;8.022;2023-04-09T00:50:38;21.40;;;15.83;;
5821;SDS011;2937;48.562;8.022;2023-04-09T00:55:31;20.70;;;15.37;;
5821;SDS011;2937;48.562;8.022;2023-04-09T01:00:25;21.20;;;15.80;;
5821;SDS011;2937;48.562;8.022;2023-04-09T01:05:18;19.83;;;14.60;;
5821;SDS011;2937;48.562;8.022;2023-04-09T01:10:13;20.63;;;14.93;;
5821;SDS011;2937;48.562;8.022;2023-04-09T01:15:08;22.50;;;15.53;;
5821;SDS011;2937;48.562;8.022;2023-04-09T01:20:04;19.80;;;14.70;;
5821;SDS011;2937;48.562;8.022;2023-04-09T01:25:06;20.97;;;14.73;;
5821;SDS011;2937;48.562;8.022;2023-04-09T01:30:07;20.17;;;14.30;;
5821;SDS011;2937;48.562;8.022;2023-04-09T01:35:02;21.03;;;14.93;;
5821;SDS011;2937;48.562;8.022;2023-04-09T01:39:55;19.37;;;14.47;;
5821;SDS011;2937;48.562;8.022;2023-04-09T01:44:47;20.60;;;15.03;;
5821;SDS011;2937;48.562;8.022;2023-04-09T01:49:42;19.73;;;13.20;;
5821;SDS011;2937;48.562;8.022;2023-04-09T01:54:35;20.37;;;14.07;;
5821;SDS011;2937;48.562;8.022;2023-04-09T01:59:28;18.80;;;13.73;;
5821;SDS011;2937;48.562;8.022;2023-04-09T02:04:21;18.00;;;13.40;;
5821;SDS011;2937;48.562;8.022;2023-04-09T02:09:17;17.70;;;12.63;;
5821;SDS011;2937;48.562;8.022;2023-04-09T02:14:11;18.20;;;13.30;;
5821;SDS011;2937;48.562;8.022;2023-04-09T02:19:04;16.50;;;12.20;;
5821;SDS011;2937;48.562;8.022;2023-04-09T02:23:57;17.80;;;12.60;;
5821;SDS011;2937;48.562;8.022;2023-04-09T02:28:51;19.03;;;13.70;;
5821;SDS011;2937;48.562;8.022;2023-04-09T02:33:44;19.83;;;13.80;;
5821;SDS011;2937;48.562;8.022;2023-04-09T02:38:39;16.57;;;12.37;;
5821;SDS011;2937;48.562;8.022;2023-04-09T02:43:31;20.50;;;13.17;;
5821;SDS011;2937;48.562;8.022;2023-04-09T02:48:25;17.53;;;13.00;;
5821;SDS011;2937;48.562;8.022;2023-04-09T02:53:18;19.20;;;13.10;;
5821;SDS011;2937;48.562;8.022;2023-04-09T02:58:11;16.67;;;12.10;;
5821;SDS011;2937;48.562;8.022;2023-04-09T03:03:04;16.50;;;12.77;;
5821;SDS011;2937;48.562;8.022;2023-04-09T03:07:58;19.13;;;12.60;;
5821;SDS011;2937;48.562;8.022;2023-04-09T03:12:51;19.77;;;12.47;;
5821;SDS011;2937;48.562;8.022;2023-04-09T03:17:43;20.40;;;13.50;;
5821;SDS011;2937;48.562;8.022;2023-04-09T03:22:36;17.53;;;12.67;;
5821;SDS011;2937;48.562;8.022;2023-04-09T03:27:40;22.30;;;15.10;;
5821;SDS011;2937;48.562;8.022;2023-04-09T03:32:37;19.43;;;14.23;;
5821;SDS011;2937;48.562;8.022;2023-04-09T03:37:30;22.23;;;15.20;;
5821;SDS011;2937;48.562;8.022;2023-04-09T03:42:23;24.47;;;15.00;;
5821;SDS011;2937;48.562;8.022;2023-04-09T03:47:17;22.93;;;14.90;;
5821;SDS011;2937;48.562;8.022;2023-04-09T03:52:10;20.67;;;14.63;;
5821;SDS011;2937;48.562;8.022;2023-04-09T03:57:06;24.77;;;14.90;;
5821;SDS011;2937;48.562;8.022;2023-04-09T04:02:03;20.87;;;13.50;;
5821;SDS011;2937;48.562;8.022;2023-04-09T04:07:01;23.20;;;14.40;;
5821;SDS011;2937;48.562;8.022;2023-04-09T04:11:59;17.93;;;13.03;;
5821;SDS011;2937;48.562;8.022;2023-04-09T04:17:09;22.50;;;14.60;;
5821;SDS011;2937;48.562;8.022;2023-04-09T04:22:03;22.10;;;14.63;;
5821;SDS011;2937;48.562;8.022;2023-04-09T04:27:01;24.63;;;14.93;;
5821;SDS011;2937;48.562;8.022;2023-04-09T04:31:57;26.20;;;15.13;;
5821;SDS011;2937;48.562;8.022;2023-04-09T04:36:57;24.67;;;16.37;;
5821;SDS011;2937;48.562;8.022;2023-04-09T04:41:55;23.77;;;15.10;;
5821;SDS011;2937;48.562;8.022;2023-04-09T04:46:51;25.33;;;16.60;;
5821;SDS011;2937;48.562;8.022;2023-04-09T04:51:43;27.73;;;17.30;;
5821;SDS011;2937;48.562;8.022;2023-04-09T04:56:38;26.07;;;17.23;;
5821;SDS011;2937;48.562;8.022;2023-04-09T05:01:41;25.60;;;16.00;;
5821;SDS011;2937;48.562;8.022;2023-04-09T05:06:36;24.87;;;17.07;;
5821;SDS011;2937;48.562;8.022;2023-04-09T05:11:33;28.73;;;17.77;;
5821;SDS011;2937;48.562;8.022;2023-04-09T05:16:28;28.57;;;17.70;;
5821;SDS011;2937;48.562;8.022;2023-04-09T05:21:29;30.47;;;18.10;;
5821;SDS011;2937;48.562;8.022;2023-04-09T05:26:24;25.80;;;17.60;;
5821;SDS011;2937;48.562;8.022;2023-04-09T05:31:21;25.83;;;17.10;;
5821;SDS011;2937;48.562;8.022;2023-04-09T05:36:25;24.23;;;17.60;;
5821;SDS011;2937;48.562;8.022;2023-04-09T05:41:19;20.73;;;14.47;;
5821;SDS011;2937;48.562;8.022;2023-04-09T05:46:31;18.90;;;13.50;;
5821;SDS011;2937;48.562;8.022;2023-04-09T05:51:25;18.23;;;13.07;;
5821;SDS011;2937;48.562;8.022;2023-04-09T05:56:21;18.03;;;12.83;;
5821;SDS011;2937;48.562;8.022;2023-04-09T06:01:18;18.43;;;12.90;;
5821;SDS011;2937;48.562;8.022;2023-04-09T06:06:12;18.60;;;14.00;;
5821;SDS011;2937;48.562;8.022;2023-04-09T06:11:07;18.13;;;13.30;;
5821;SDS011;2937;48.562;8.022;2023-04-09T06:16:03;18.33;;;13.30;;
5821;SDS011;2937;48.562;8.022;2023-04-09T06:21:00;18.60;;;14.33;;
5821;SDS011;2937;48.562;8.022;2023-04-09T06:25:52;19.93;;;14.47;;
5821;SDS011;2937;48.562;8.022;2023-04-09T06:30:45;19.33;;;14.00;;
5821;SDS011;2937;48.562;8.022;2023-04-09T06:35:40;20.63;;;15.03;;
5821;SDS011;2937;48.562;8.022;2023-04-09T06:40:33;19.67;;;14.23;;
5821;SDS011;2937;48.562;8.022;2023-04-09T06:45:26;18.17;;;13.80;;
5821;SDS011;2937;48.562;8.022;2023-04-09T06:50:18;17.60;;;12.90;;
5821;SDS011;2937;48.562;8.022;2023-04-09T06:55:12;18.30;;;13.50;;
5821;SDS011;2937;48.562;8.022;2023-04-09T07:00:05;17.53;;;13.40;;
5821;SDS011;2937;48.562;8.022;2023-04-09T07:04:58;18.03;;;14.27;;
5821;SDS011;2937;48.562;8.022;2023-04-09T07:09:51;18.63;;;14.10;;
5821;SDS011;2937;48.562;8.022;2023-04-09T07:14:45;17.43;;;13.47;;
5821;SDS011;2937;48.562;8.022;2023-04-09T07:19:38;17.33;;;13.80;;
5821;SDS011;2937;48.562;8.022;2023-04-09T07:24:31;19.57;;;14.53;;
5821;SDS011;2937;48.562;8.022;2023-04-09T07:29:23;17.97;;;13.93;;
5821;SDS011;2937;48.562;8.022;2023-04-09T07:34:17;18.00;;;13.53;;
5821;SDS011;2937;48.562;8.022;2023-04-09T07:39:10;19.10;;;14.27;;
5821;SDS011;2937;48.562;8.022;2023-04-09T07:44:03;18.00;;;13.90;;
5821;SDS011;2937;48.562;8.022;2023-04-09T07:48:56;14.80;;;12.70;;
5821;SDS011;2937;48.562;8.022;2023-04-09T07:53:50;16.00;;;13.30;;
5821;SDS011;2937;48.562;8.022;2023-04-09T07:58:43;14.47;;;12.87;;
5821;SDS011;2937;48.562;8.022;2023-04-09T08:03:36;14.83;;;12.50;;
5821;SDS011;2937;48.562;8.022;2023-04-09T08:08:29;14.90;;;12.27;;
5821;SDS011;2937;48.562;8.022;2023-04-09T08:13:23;14.87;;;12.50;;
5821;SDS011;2937;48.562;8.022;2023-04-09T08:18:16;13.03;;;11.60;;
5821;SDS011;2937;48.562;8.022;2023-04-09T08:23:08;13.40;;;11.50;;
5821;SDS011;2937;48.562;8.022;2023-04-09T08:28:01;13.93;;;12.37;;
5821;SDS011;2937;48.562;8.022;2023-04-09T08:32:56;14.80;;;12.93;;
5821;SDS011;2937;48.562;8.022;2023-04-09T08:37:48;14.20;;;12.37;;
5821;SDS011;2937;48.562;8.022;2023-04-09T08:42:43;14.00;;;12.50;;
5821;SDS011;2937;48.562;8.022;2023-04-09T08:47:36;12.93;;;11.50;;
5821;SDS011;2937;48.562;8.022;2023-04-09T08:52:33;13.03;;;10.90;;
5821;SDS011;2937;48.562;8.022;2023-04-09T08:57:26;13.13;;;11.53;;
5821;SDS011;2937;48.562;8.022;2023-04-09T09:02:19;14.23;;;11.97;;
5821;SDS011;2937;48.562;8.022;2023-04-09T09:07:11;14.87;;;12.27;;
5821;SDS011;2937;48.562;8.022;2023-04-09T09:12:05;13.60;;;11.13;;
5821;SDS011;2937;48.562;8.022;2023-04-09T09:17:02;12.70;;;10.30;;
5821;SDS011;2937;48.562;8.022;2023-04-09T09:21:56;11.00;;;9.30;;
5821;SDS011;2937;48.562;8.022;2023-04-09T09:26:49;11.63;;;9.23;;
5821;SDS011;2937;48.562;8.022;2023-04-09T09:31:46;10.57;;;8.33;;
5821;SDS011;2937;48.562;8.022;2023-04-09T09:36:40;10.20;;;8.40;;
5821;SDS011;2937;48.562;8.022;2023-04-09T09:41:32;10.30;;;8.53;;
5821;SDS011;2937;48.562;8.022;2023-04-09T09:46:25;8.90;;;8.00;;
5821;SDS011;2937;48.562;8.022;2023-04-09T09:51:21;9.40;;;8.33;;
5821;SDS011;2937;48.562;8.022;2023-04-09T09:56:17;8.27;;;7.00;;
5821;SDS011;2937;48.562;8.022;2023-04-09T10:01:11;9.33;;;8.33;;
5821;SDS011;2937;48.562;8.022;2023-04-09T10:06:04;10.30;;;8.30;;
5821;SDS011;2937;48.562;8.022;2023-04-09T10:10:59;8.60;;;7.70;;
5821;SDS011;2937;48.562;8.022;2023-04-09T10:15:52;9.83;;;8.27;;
5821;SDS011;2937;48.562;8.022;2023-04-09T10:20:45;9.50;;;8.20;;
5821;SDS011;2937;48.562;8.022;2023-04-09T10:25:39;6.47;;;5.63;;
5821;SDS011;2937;48.562;8.022;2023-04-09T10:30:34;6.50;;;5.83;;
5821;SDS011;2937;48.562;8.022;2023-04-09T10:35:27;5.63;;;4.90;;
5821;SDS011;2937;48.562;8.022;2023-04-09T10:40:20;4.60;;;4.20;;
5821;SDS011;2937;48.562;8.022;2023-04-09T10:45:13;5.43;;;4.93;;
5821;SDS011;2937;48.562;8.022;2023-04-09T10:50:16;4.83;;;4.40;;
5821;SDS011;2937;48.562;8.022;2023-04-09T10:55:09;5.17;;;4.67;;
5821;SDS011;2937;48.562;8.022;2023-04-09T11:00:21;5.63;;;4.73;;
5821;SDS011;2937;48.562;8.022;2023-04-09T11:05:19;5.50;;;4.80;;
5821;SDS011;2937;48.562;8.022;2023-04-09T11:10:13;6.33;;;5.40;;
5821;SDS011;2937;48.562;8.022;2023-04-09T11:15:06;6.20;;;5.60;;
5821;SDS011;2937;48.562;8.022;2023-04-09T11:20:06;6.27;;;5.67;;
5821;SDS011;2937;48.562;8.022;2023-04-09T11:25:02;6.17;;;5.57;;
5821;SDS011;2937;48.562;8.022;2023-04-09T11:29:54;5.60;;;5.00;;
5821;SDS011;2937;48.562;8.022;2023-04-09T11:34:47;5.33;;;4.80;;
5821;SDS011;2937;48.562;8.022;2023-04-09T11:39:43;6.00;;;5.40;;
5821;SDS011;2937;48.562;8.022;2023-04-09T11:44:38;6.00;;;5.40;;
5821;SDS011;2937;48.562;8.022;2023-04-09T11:49:31;5.90;;;5.33;;
5821;SDS011;2937;48.562;8.022;2023-04-09T11:54:24;7.67;;;6.00;;
5821;SDS011;2937;48.562;8.022;2023-04-09T11:59:16;6.27;;;5.70;;
5821;SDS011;2937;48.562;8.022;2023-04-09T12:04:17;6.77;;;6.07;;
5821;SDS011;2937;48.562;8.022;2023-04-09T12:09:10;7.20;;;6.17;;
5821;SDS011;2937;48.562;8.022;2023-04-09T12:14:04;6.27;;;5.63;;
5821;SDS011;2937;48.562;8.022;2023-04-09T12:18:59;6.63;;;5.97;;
5821;SDS011;2937;48.562;8.022;2023-04-09T12:23:53;6.67;;;6.07;;
5821;SDS011;2937;48.562;8.022;2023-04-09T12:28:46;8.30;;;6.70;;
5821;SDS011;2937;48.562;8.022;2023-04-09T12:33:38;7.00;;;6.30;;
5821;SDS011;2937;48.562;8.022;2023-04-09T12:38:31;7.67;;;6.53;;
5821;SDS011;2937;48.562;8.022;2023-04-09T12:43:25;6.77;;;5.97;;
5821;SDS011;2937;48.562;8.022;2023-04-09T12:48:18;7.00;;;6.30;;
5821;SDS011;2937;48.562;8.022;2023-04-09T12:53:11;7.43;;;6.63;;
5821;SDS011;2937;48.562;8.022;2023-04-09T12:58:04;6.50;;;5.80;;
5821;SDS011;2937;48.562;8.022;2023-04-09T13:02:59;7.93;;;7.13;;
5821;SDS011;2937;48.562;8.022;2023-04-09T13:07:52;7.40;;;6.70;;
5821;SDS011;2937;48.562;8.022;2023-04-09T13:12:44;7.13;;;6.50;;
5821;SDS011;2937;48.562;8.022;2023-04-09T13:17:37;6.67;;;5.80;;
5821;SDS011;2937;48.562;8.022;2023-04-09T13:22:31;6.83;;;4.90;;
5821;SDS011;2937;48.562;8.022;2023-04-09T13:27:24;7.20;;;6.50;;
5821;SDS011;2937;48.562;8.022;2023-04-09T13:32:17;6.70;;;6.03;;
5821;SDS011;2937;48.562;8.022;2023-04-09T13:37:12;8.17;;;6.53;;
5821;SDS011;2937;48.562;8.022;2023-04-09T13:42:06;6.80;;;6.17;;
5821;SDS011;2937;48.562;8.022;2023-04-09T13:47:04;6.23;;;5.63;;
5821;SDS011;2937;48.562;8.022;2023-04-09T13:51:57;7.33;;;6.07;;
5821;SDS011;2937;48.562;8.022;2023-04-09T13:56:50;8.10;;;6.47;;
5821;SDS011;2937;48.562;8.022;2023-04-09T14:01:44;6.90;;;6.20;;
5821;SDS011;2937;48.562;8.022;2023-04-09T14:06:36;6.53;;;5.40;;
5821;SDS011;2937;48.562;8.022;2023-04-09T14:11:29;6.83;;;6.13;;
5821;SDS011;2937;48.562;8.022;2023-04-09T14:16:22;6.30;;;5.70;;
5821;SDS011;2937;48.562;8.022;2023-04-09T14:21:16;6.30;;;5.13;;
5821;SDS011;2937;48.562;8.022;2023-04-09T14:26:09;6.33;;;5.73;;
5821;SDS011;2937;48.562;8.022;2023-04-09T14:31:02;6.00;;;5.50;;
5821;SDS011;2937;48.562;8.022;2023-04-09T14:35:55;6.07;;;5.40;;
5821;SDS011;2937;48.562;8.022;2023-04-09T14:40:50;6.30;;;5.70;;
5821;SDS011;2937;48.562;8.022;2023-04-09T14:45:43;6.00;;;5.40;;
5821;SDS011;2937;48.562;8.022;2023-04-09T14:50:35;5.93;;;5.33;;
5821;SDS011;2937;48.562;8.022;2023-04-09T14:55:28;5.57;;;5.07;;
5821;SDS011;2937;48.562;8.022;2023-04-09T15:00:22;5.80;;;5.20;;
5821;SDS011;2937;48.562;8.022;2023-04-09T15:05:15;5.40;;;4.90;;
5821;SDS011;2937;48.562;8.022;2023-04-09T15:10:08;6.90;;;5.70;;
5821;SDS011;2937;48.562;8.022;2023-04-09T15:15:03;6.30;;;5.70;;
5821;SDS011;2937;48.562;8.022;2023-04-09T15:19:57;5.90;;;5.30;;
5821;SDS011;2937;48.562;8.022;2023-04-09T15:24:50;5.10;;;4.57;;
5821;SDS011;2937;48.562;8.022;2023-04-09T15:29:43;5.40;;;4.83;;
5821;SDS011;2937;48.562;8.022;2023-04-09T15:34:36;5.80;;;5.20;;
5821;SDS011;2937;48.562;8.022;2023-04-09T15:39:30;4.87;;;4.47;;
5821;SDS011;2937;48.562;8.022;2023-04-09T15:44:24;5.17;;;4.67;;
5821;SDS011;2937;48.562;8.022;2023-04-09T15:49:17;5.30;;;4.60;;
5821;SDS011;2937;48.562;8.022;2023-04-09T15:54:10;4.63;;;4.20;;
5821;SDS011;2937;48.562;8.022;2023-04-09T15:59:04;5.23;;;4.67;;
5821;SDS011;2937;48.562;8.022;2023-04-09T16:03:58;5.37;;;4.87;;
5821;SDS011;2937;48.562;8.022;2023-04-09T16:08:50;5.80;;;5.30;;
5821;SDS011;2937;48.562;8.022;2023-04-09T16:13:43;5.40;;;4.83;;
5821;SDS011;2937;48.562;8.022;2023-04-09T16:18:37;5.17;;;4.67;;
5821;SDS011;2937;48.562;8.022;2023-04-09T16:23:30;5.37;;;4.87;;
5821;SDS011;2937;48.562;8.022;2023-04-09T16:28:23;7.80;;;4.90;;
5821;SDS011;2937;48.562;8.022;2023-04-09T16:33:16;5.73;;;5.13;;
5821;SDS011;2937;48.562;8.022;2023-04-09T16:38:11;5.20;;;4.47;;
5821;SDS011;2937;48.562;8.022;2023-04-09T16:43:04;5.90;;;4.90;;
5821;SDS011;2937;48.562;8.022;2023-04-09T16:47:56;5.20;;;4.57;;
5821;SDS011;2937;48.562;8.022;2023-04-09T16:52:49;5.27;;;4.77;;
5821;SDS011;2937;48.562;8.022;2023-04-09T16:57:43;5.00;;;4.50;;
5821;SDS011;2937;48.562;8.022;2023-04-09T17:02:35;5.93;;;5.10;;
5821;SDS011;2937;48.562;8.022;2023-04-09T17:07:28;5.37;;;4.87;;
5821;SDS011;2937;48.562;8.022;2023-04-09T17:12:24;5.23;;;4.73;;
5821;SDS011;2937;48.562;8.022;2023-04-09T17:17:19;6.00;;;5.00;;
5821;SDS011;2937;48.562;8.022;2023-04-09T17:22:12;5.60;;;4.60;;
5821;SDS011;2937;48.562;8.022;2023-04-09T17:27:05;5.83;;;4.70;;
5821;SDS011;2937;48.562;8.022;2023-04-09T17:31:58;6.00;;;4.83;;
5821;SDS011;2937;48.562;8.022;2023-04-09T17:36:52;6.43;;;5.23;;
5821;SDS011;2937;48.562;8.022;2023-04-09T17:41:47;5.30;;;4.80;;
5821;SDS011;2937;48.562;8.022;2023-04-09T17:46:40;6.07;;;4.80;;
5821;SDS011;2937;48.562;8.022;2023-04-09T17:51:34;6.33;;;4.93;;
5821;SDS011;2937;48.562;8.022;2023-04-09T17:56:28;5.77;;;4.93;;
5821;SDS011;2937;48.562;8.022;2023-04-09T18:01:21;6.00;;;4.97;;
5821;SDS011;2937;48.562;8.022;2023-04-09T18:06:14;6.00;;;4.93;;
5821;SDS011;2937;48.562;8.022;2023-04-09T18:11:07;6.57;;;5.20;;
5821;SDS011;2937;48.562;8.022;2023-04-09T18:16:08;7.60;;;5.27;;
5821;SDS011;2937;48.562;8.022;2023-04-09T18:21:01;6.03;;;5.33;;
5821;SDS011;2937;48.562;8.022;2023-04-09T18:25:53;6.30;;;4.50;;
5821;SDS011;2937;48.562;8.022;2023-04-09T18:30:46;7.00;;;5.10;;
5821;SDS011;2937;48.562;8.022;2023-04-09T18:35:40;8.97;;;6.80;;
5821;SDS011;2937;48.562;8.022;2023-04-09T18:40:38;8.80;;;6.43;;
5821;SDS011;2937;48.562;8.022;2023-04-09T18:45:31;8.70;;;6.60;;
5821;SDS011;2937;48.562;8.022;2023-04-09T18:50:23;8.90;;;6.70;;
5821;SDS011;2937;48.562;8.022;2023-04-09T18:55:18;7.23;;;5.53;;
5821;SDS011;2937;48.562;8.022;2023-04-09T19:00:11;8.03;;;5.40;;
5821;SDS011;2937;48.562;8.022;2023-04-09T19:05:04;7.87;;;5.90;;
5821;SDS011;2937;48.562;8.022;2023-04-09T19:09:58;7.43;;;5.70;;
5821;SDS011;2937;48.562;8.022;2023-04-09T19:14:52;7.50;;;5.90;;
5821;SDS011;2937;48.562;8.022;2023-04-09T19:19:45;8.27;;;6.27;;
5821;SDS011;2937;48.562;8.022;2023-04-09T19:24:37;8.60;;;5.87;;
5821;SDS011;2937;48.562;8.022;2023-04-09T19:29:30;7.20;;;6.00;;
5821;SDS011;2937;48.562;8.022;2023-04-09T19:34:24;8.80;;;6.13;;
5821;SDS011;2937;48.562;8.022;2023-04-09T19:39:17;7.60;;;6.10;;
5821;SDS011;2937;48.562;8.022;2023-04-09T19:44:10;7.33;;;6.27;;
5821;SDS011;2937;48.562;8.022;2023-04-09T19:49:02;9.63;;;6.67;;
5821;SDS011;2937;48.562;8.022;2023-04-09T19:53:56;6.90;;;6.00;;
5821;SDS011;2937;48.562;8.022;2023-04-09T19:58:49;8.23;;;6.17;;
5821;SDS011;2937;48.562;8.022;2023-04-09T20:03:42;9.07;;;6.97;;
5821;SDS011;2937;48.562;8.022;2023-04-09T20:08:35;9.83;;;6.97;;
5821;SDS011;2937;48.562;8.022;2023-04-09T20:13:29;8.43;;;6.27;;
5821;SDS011;2937;48.562;8.022;2023-04-09T20:18:22;14.13;;;8.63;;
5821;SDS011;2937;48.562;8.022;2023-04-09T20:23:14;10.10;;;7.17;;
5821;SDS011;2937;48.562;8.022;2023-04-09T20:28:08;9.10;;;6.70;;
5821;SDS011;2937;48.562;8.022;2023-04-09T20:33:02;7.93;;;6.47;;
5821;SDS011;2937;48.562;8.022;2023-04-09T20:37:55;9.17;;;6.93;;
5821;SDS011;2937;48.562;8.022;2023-04-09T20:42:47;8.07;;;6.43;;
5821;SDS011;2937;48.562;8.022;2023-04-09T20:47:40;9.83;;;6.90;;
5821;SDS011;2937;48.562;8.022;2023-04-09T20:52:35;10.73;;;6.70;;
5821;SDS011;2937;48.562;8.022;2023-04-09T20:57:32;7.73;;;6.00;;
5821;SDS011;2937;48.562;8.022;2023-04-09T21:02:25;10.73;;;7.57;;
5821;SDS011;2937;48.562;8.022;2023-04-09T21:07:18;9.70;;;7.13;;
5821;SDS011;2937;48.562;8.022;2023-04-09T21:12:12;8.43;;;5.93;;
5821;SDS011;2937;48.562;8.022;2023-04-09T21:17:05;9.40;;;6.90;;
5821;SDS011;2937;48.562;8.022;2023-04-09T21:21:57;9.17;;;7.20;;
5821;SDS011;2937;48.562;8.022;2023-04-09T21:26:50;9.23;;;6.60;;
5821;SDS011;2937;48.562;8.022;2023-04-09T21:31:44;10.30;;;6.87;;
5821;SDS011;2937;48.562;8.022;2023-04-09T21:36:37;9.00;;;6.70;;
5821;SDS011;2937;48.562;8.022;2023-04-09T21:41:30;9.97;;;7.50;;
5821;SDS011;2937;48.562;8.022;2023-04-09T21:46:22;10.07;;;7.10;;
5821;SDS011;2937;48.562;8.022;2023-04-09T21:51:16;9.80;;;7.40;;
5821;SDS011;2937;48.562;8.022;2023-04-09T21:56:09;11.47;;;7.63;;
5821;SDS011;2937;48.562;8.022;2023-04-09T22:01:01;10.33;;;7.57;;
5821;SDS011;2937;48.562;8.022;2023-04-09T22:05:55;10.37;;;8.10;;
5821;SDS011;2937;48.562;8.022;2023-04-09T22:10:49;11.50;;;7.90;;
5821;SDS011;2937;48.562;8.022;2023-04-09T22:15:42;9.03;;;7.00;;
5821;SDS011;2937;48.562;8.022;2023-04-09T22:20:35;11.47;;;7.53;;
5821;SDS011;2937;48.562;8.022;2023-04-09T22:25:28;9.50;;;7.43;;
5821;SDS011;2937;48.562;8.022;2023-04-09T22:30:26;9.80;;;7.53;;
5821;SDS011;2937;48.562;8.022;2023-04-09T22:35:19;11.93;;;8.00;;
5821;SDS011;2937;48.562;8.022;2023-04-09T22:40:12;10.13;;;7.50;;
5821;SDS011;2937;48.562;8.022;2023-04-09T22:45:05;11.13;;;7.83;;
5821;SDS011;2937;48.562;8.022;2023-04-09T22:49:59;11.03;;;8.30;;
5821;SDS011;2937;48.562;8.022;2023-04-09T22:54:53;10.37;;;7.43;;
5821;SDS011;2937;48.562;8.022;2023-04-09T22:59:45;10.30;;;7.40;;
5821;SDS011;2937;48.562;8.022;2023-04-09T23:04:38;10.43;;;7.60;;
5821;SDS011;2937;48.562;8.022;2023-04-09T23:09:32;10.93;;;7.83;;
5821;SDS011;2937;48.562;8.022;2023-04-09T23:14:24;11.67;;;7.93;;
5821;SDS011;2937;48.562;8.022;2023-04-09T23:19:17;10.53;;;7.77;;
5821;SDS011;2937;48.562;8.022;2023-04-09T23:24:10;14.10;;;8.17;;
5821;SDS011;2937;48.562;8.022;2023-04-09T23:29:04;11.70;;;7.80;;
5821;SDS011;2937;48.562;8.022;2023-04-09T23:33:56;11.40;;;8.30;;
5821;SDS011;2937;48.562;8.022;2023-04-09T23:38:49;12.47;;;8.20;;
5821;SDS011;2937;48.562;8.022;2023-04-09T23:43:41;13.30;;;8.67;;
5821;SDS011;2937;48.562;8.022;2023-04-09T23:48:35;10.90;;;8.30;;
5821;SDS011;2937;48.562;8.022;2023-04-09T23:53:28;10.77;;;7.70;;
5821;SDS011;2937;48.562;8.022;2023-04-09T23:58:20;10.07;;;7.63;;
